Time;durP1;ratioP1;P1;durP2;ratioP2;P2;SDS_P1;SDS_P2;PMS_P1;PMS_P2;Temp;Humidity;BMP_temperature;BMP_pressure;BME280_temperature;BME280_humidity;BME280_pressure;Samples;Min_cycle;Max_cycle;Signal;HPM_P1;HPM_P2
2022/03/14 00:02:17;;;;;;;15.77;10.93;;;;;;;4.23;48.21;100983.72;5050840;28;20200;-59
2022/03/14 00:04:45;;;;;;;16.30;10.10;;;;;;;4.31;48.31;100987.66;5050933;28;20193;-59
2022/03/14 00:07:14;;;;;;;16.92;12.45;;;;;;;4.30;48.16;100988.44;5049810;28;20542;-59
2022/03/14 00:09:41;;;;;;;12.60;10.17;;;;;;;4.30;48.87;100990.09;5050445;28;20286;-59
2022/03/14 00:12:08;;;;;;;14.83;11.23;;;;;;;4.26;48.79;100989.00;5069555;28;20197;-59
2022/03/14 00:14:35;;;;;;;16.33;10.27;;;;;;;4.13;49.37;100969.53;5070449;28;20721;-59
2022/03/14 00:17:09;;;;;;;19.15;11.57;;;;;;;4.21;49.42;100985.28;5070176;28;20440;-59
2022/03/14 00:19:36;;;;;;;15.63;11.73;;;;;;;4.30;49.25;100992.63;5070386;28;20196;-59
2022/03/14 00:22:04;;;;;;;16.30;10.90;;;;;;;4.22;49.30;100992.16;5070475;28;20192;-59
2022/03/14 00:24:32;;;;;;;16.47;11.70;;;;;;;4.19;49.61;100991.94;5070692;28;20612;-60
2022/03/14 00:26:59;;;;;;;13.67;11.63;;;;;;;4.17;49.70;100994.38;5070680;28;20192;-59
2022/03/14 00:29:28;;;;;;;16.03;11.37;;;;;;;4.08;49.90;100983.63;5070452;28;20196;-59
2022/03/14 00:31:54;;;;;;;18.47;12.33;;;;;;;4.05;49.79;100992.69;5070531;28;20188;-59
2022/03/14 00:34:21;;;;;;;28.20;12.53;;;;;;;3.99;50.10;100994.81;5070305;28;20650;-59
2022/03/14 00:36:48;;;;;;;18.43;12.10;;;;;;;3.98;50.44;100995.63;5070038;28;20200;-59
2022/03/14 00:39:15;;;;;;;16.60;11.47;;;;;;;3.99;50.72;101000.81;5053665;28;20231;-60
2022/03/14 00:41:44;;;;;;;17.73;13.10;;;;;;;4.01;51.02;100998.38;5049679;28;20505;-59
2022/03/14 00:44:11;;;;;;;15.07;10.93;;;;;;;4.10;50.92;101001.50;5050480;28;20193;-59
2022/03/14 00:46:39;;;;;;;17.23;11.43;;;;;;;4.08;50.85;100992.91;5050082;28;20199;-59
2022/03/14 00:49:06;;;;;;;14.63;10.77;;;;;;;4.14;50.66;101003.47;5050289;28;20192;-60
2022/03/14 00:51:34;;;;;;;19.93;11.43;;;;;;;4.14;50.37;100999.28;5050018;28;20286;-60
2022/03/14 00:54:01;;;;;;;13.60;10.63;;;;;;;4.14;50.37;100996.75;5050214;28;20219;-59
2022/03/14 00:56:28;;;;;;;14.97;10.37;;;;;;;4.14;50.51;100993.31;5050351;28;20198;-59
2022/03/14 00:58:59;;;;;;;14.67;10.83;;;;;;;4.15;49.97;100998.47;5050096;28;20243;-59
2022/03/14 01:01:26;;;;;;;41.07;14.60;;;;;;;4.20;50.35;101001.34;5050026;28;20227;-58
2022/03/14 01:03:53;;;;;;;32.23;13.33;;;;;;;4.17;50.36;101003.69;5050103;28;20271;-59
2022/03/14 01:06:21;;;;;;;25.70;12.20;;;;;;;4.17;50.37;101008.78;5050812;28;20687;-58
2022/03/14 01:08:47;;;;;;;19.60;12.23;;;;;;;4.18;49.95;101011.41;5054203;28;20194;-59
2022/03/14 01:11:15;;;;;;;19.00;11.47;;;;;;;4.16;50.43;101004.44;5055711;28;20193;-59
2022/03/14 01:13:44;;;;;;;15.73;11.67;;;;;;;4.17;50.77;101004.53;5073802;28;20193;-59
2022/03/14 01:16:12;;;;;;;22.37;13.07;;;;;;;4.20;50.29;101008.97;5073745;28;20191;-59
2022/03/14 01:18:39;;;;;;;23.93;13.43;;;;;;;4.19;50.70;101002.13;5073816;28;20200;-59
2022/03/14 01:21:06;;;;;;;32.37;13.57;;;;;;;4.22;50.42;101009.06;5054197;28;20215;-59
2022/03/14 01:23:33;;;;;;;22.43;14.13;;;;;;;4.18;50.42;101002.88;5053593;28;20236;-60
2022/03/14 01:26:00;;;;;;;21.80;14.03;;;;;;;4.19;50.98;101012.28;5053429;28;20227;-60
2022/03/14 01:28:26;;;;;;;24.10;14.63;;;;;;;4.16;50.92;101012.09;5053524;28;20277;-60
2022/03/14 01:30:53;;;;;;;24.87;15.67;;;;;;;4.15;50.70;101011.19;5053310;28;20199;-59
2022/03/14 01:33:22;;;;;;;23.10;14.90;;;;;;;4.16;50.88;101009.53;5053444;28;20192;-60
2022/03/14 01:35:48;;;;;;;23.17;15.20;;;;;;;4.14;50.67;101008.56;5053513;28;20606;-59
2022/03/14 01:38:15;;;;;;;30.73;15.93;;;;;;;4.17;50.66;101014.72;5053424;28;20283;-60
2022/03/14 01:40:42;;;;;;;26.93;16.07;;;;;;;4.20;50.96;101018.25;5053165;28;20197;-60
2022/03/14 01:43:09;;;;;;;22.13;14.33;;;;;;;4.20;51.03;101010.63;5053001;28;20191;-60
2022/03/14 01:45:36;;;;;;;21.53;14.27;;;;;;;4.21;50.46;101010.72;5053396;28;20269;-60
2022/03/14 01:48:05;;;;;;;19.88;14.52;;;;;;;4.23;51.20;101023.56;5053363;28;20564;-60
2022/03/14 01:50:34;;;;;;;17.10;13.30;;;;;;;4.23;51.49;101024.41;5053249;28;20203;-59
2022/03/14 01:53:01;;;;;;;18.97;13.57;;;;;;;4.19;51.54;101022.47;5053119;28;20203;-59
2022/03/14 01:55:29;;;;;;;21.43;14.43;;;;;;;4.20;51.41;101029.31;5052973;28;20216;-59
2022/03/14 01:57:57;;;;;;;20.77;15.50;;;;;;;4.18;51.43;101039.38;5052763;28;20193;-60
2022/03/14 02:00:24;;;;;;;19.47;15.07;;;;;;;4.10;52.30;101045.63;5052905;28;20192;-59
2022/03/14 02:02:51;;;;;;;25.93;17.13;;;;;;;4.13;52.58;101042.41;5052988;28;20192;-59
2022/03/14 02:05:19;;;;;;;23.00;17.50;;;;;;;4.05;54.12;101041.00;5052669;28;20188;-59
2022/03/14 02:07:47;;;;;;;26.90;18.37;;;;;;;3.94;54.73;101047.94;5058815;28;20648;-60
2022/03/14 02:10:15;;;;;;;28.93;19.97;;;;;;;3.91;55.44;101059.53;5072671;28;20199;-59
2022/03/14 02:12:45;;;;;;;34.30;21.17;;;;;;;3.83;55.76;101056.50;5072394;28;20200;-59
2022/03/14 02:15:11;;;;;;;31.20;20.10;;;;;;;3.74;56.08;101060.94;5072353;28;20222;-59
2022/03/14 02:17:38;;;;;;;28.70;19.53;;;;;;;3.68;56.07;101075.78;5052236;28;20586;-59
2022/03/14 02:20:08;;;;;;;29.63;20.77;;;;;;;3.62;56.60;101072.84;5052523;28;20188;-59
2022/03/14 02:22:35;;;;;;;30.97;20.63;;;;;;;3.53;56.99;101070.53;5052811;28;20674;-59
2022/03/14 02:25:02;;;;;;;31.07;20.63;;;;;;;3.49;57.62;101078.72;5052658;28;20192;-59
2022/03/14 02:27:29;;;;;;;30.73;18.87;;;;;;;3.55;57.29;101081.69;5052750;28;20200;-59
2022/03/14 02:29:57;;;;;;;25.17;18.70;;;;;;;3.46;57.43;101082.72;5052687;28;20199;-59
2022/03/14 02:32:24;;;;;;;27.83;19.83;;;;;;;3.41;58.04;101082.38;5052477;28;20393;-59
2022/03/14 02:34:51;;;;;;;29.40;18.97;;;;;;;3.34;58.56;101089.47;5052289;28;20307;-59
2022/03/14 02:37:19;;;;;;;30.70;18.43;;;;;;;3.26;59.13;101082.97;5052219;28;20754;-60
2022/03/14 02:39:47;;;;;;;26.70;18.83;;;;;;;3.23;59.28;101083.66;5052301;28;20573;-59
2022/03/14 02:42:14;;;;;;;30.63;18.97;;;;;;;3.31;59.41;101084.19;5052304;28;20196;-59
2022/03/14 02:44:42;;;;;;;26.73;18.47;;;;;;;3.30;59.60;101090.91;5051905;28;20650;-59
2022/03/14 02:47:10;;;;;;;28.97;18.87;;;;;;;3.28;59.55;101092.47;5052214;28;20724;-59
2022/03/14 02:49:38;;;;;;;27.93;19.50;;;;;;;3.23;59.70;101093.81;5051895;28;20271;-59
2022/03/14 02:52:06;;;;;;;33.03;20.30;;;;;;;3.21;59.73;101095.38;5052040;28;20670;-58
2022/03/14 02:54:35;;;;;;;28.57;19.40;;;;;;;3.21;60.10;101097.91;5051890;28;20220;-59
2022/03/14 02:57:02;;;;;;;29.33;19.63;;;;;;;3.04;60.13;101077.16;5051753;28;20194;-59
2022/03/14 02:59:29;;;;;;;29.27;19.67;;;;;;;3.18;60.14;101099.34;5051572;28;20225;-59
2022/03/14 03:01:56;;;;;;;28.47;19.47;;;;;;;3.17;59.93;101100.09;5056168;28;20292;-59
2022/03/14 03:04:22;;;;;;;26.80;19.53;;;;;;;3.19;59.88;101107.06;5051472;28;20195;-59
2022/03/14 03:06:49;;;;;;;31.35;22.00;;;;;;;3.16;60.01;101105.97;5055229;28;20446;-59
2022/03/14 03:09:16;;;;;;;27.77;19.23;;;;;;;3.27;59.75;101105.94;5071869;28;20192;-59
2022/03/14 03:11:44;;;;;;;30.13;20.33;;;;;;;3.33;59.95;101105.47;5070921;28;20203;-59
2022/03/14 03:14:12;;;;;;;29.67;19.47;;;;;;;3.32;59.44;101104.63;5077836;28;20223;-58
2022/03/14 03:16:39;;;;;;;26.00;19.57;;;;;;;3.35;58.96;101109.03;5079419;28;20612;-58
2022/03/14 03:19:07;;;;;;;32.73;19.23;;;;;;;3.33;58.88;101110.56;5071440;28;20266;-58
2022/03/14 03:21:38;;;;;;;23.23;17.30;;;;;;;3.32;58.40;101114.78;5071297;28;20287;-57
2022/03/14 03:24:07;;;;;;;27.07;18.00;;;;;;;3.22;58.50;101103.84;5071494;28;20195;-58
2022/03/14 03:26:34;;;;;;;28.30;19.03;;;;;;;3.26;58.52;101114.34;5051707;28;20199;-58
2022/03/14 03:29:02;;;;;;;26.45;19.50;;;;;;;3.29;58.41;101121.28;5050845;28;20431;-56
2022/03/14 03:31:29;;;;;;;27.00;18.30;;;;;;;3.28;57.68;101122.06;5050944;28;20192;-57
2022/03/14 03:33:56;;;;;;;26.67;17.77;;;;;;;3.22;57.82;101130.13;5051138;28;20230;-57
2022/03/14 03:36:23;;;;;;;23.30;16.23;;;;;;;3.22;57.94;101125.03;5050890;28;20216;-57
2022/03/14 03:38:51;;;;;;;25.20;16.77;;;;;;;3.23;57.78;101133.56;5051308;28;20737;-57
2022/03/14 03:41:18;;;;;;;28.43;17.33;;;;;;;3.18;57.31;101138.31;5051092;28;20199;-57
2022/03/14 03:43:44;;;;;;;23.50;16.37;;;;;;;3.20;57.42;101146.03;5051016;28;20192;-56
2022/03/14 03:46:13;;;;;;;25.10;16.53;;;;;;;3.18;56.46;101151.00;5050764;28;20184;-57
2022/03/14 03:48:39;;;;;;;24.87;15.97;;;;;;;3.19;56.98;101146.78;5050994;28;20317;-57
2022/03/14 03:51:06;;;;;;;22.27;15.40;;;;;;;3.20;56.33;101146.91;5052502;28;20211;-57
2022/03/14 03:53:33;;;;;;;23.53;15.37;;;;;;;3.20;56.07;101144.38;5078046;28;20744;-57
2022/03/14 03:56:00;;;;;;;25.47;15.47;;;;;;;3.25;56.54;101145.59;5080410;28;20203;-57
2022/03/14 03:58:27;;;;;;;24.30;15.47;;;;;;;3.26;55.93;101154.09;5079602;28;20222;-57
2022/03/14 04:00:54;;;;;;;26.30;14.87;;;;;;;3.29;55.12;101154.31;5078101;28;20207;-58
2022/03/14 04:03:22;;;;;;;21.00;17.25;;;;;;;3.41;54.66;101156.06;5079330;28;20441;-57
2022/03/14 04:05:51;;;;;;;41.43;16.73;;;;;;;3.47;53.76;101166.66;5077871;28;20187;-58
2022/03/14 04:08:19;;;;;;;28.20;15.30;;;;;;;3.49;53.59;101161.66;5074368;28;20655;-58
2022/03/14 04:10:54;;;;;;;20.92;14.35;;;;;;;3.45;54.03;101169.88;5070329;28;20445;-57
2022/03/14 04:13:22;;;;;;;23.63;15.13;;;;;;;3.46;53.53;101175.03;5070386;28;20188;-57
2022/03/14 04:15:52;;;;;;;21.63;14.70;;;;;;;3.44;53.35;101181.69;5070159;28;20273;-57
2022/03/14 04:18:19;;;;;;;23.07;15.37;;;;;;;3.42;53.78;101184.91;5070509;28;20192;-57
2022/03/14 04:20:48;;;;;;;22.67;14.70;;;;;;;3.40;54.00;101184.78;5070221;28;20199;-57
2022/03/14 04:23:17;;;;;;;21.53;15.27;;;;;;;3.39;54.30;101184.66;5070366;28;20793;-57
2022/03/14 04:25:45;;;;;;;21.67;15.37;;;;;;;3.40;54.45;101186.44;5070050;28;20267;-57
2022/03/14 04:28:12;;;;;;;25.10;14.07;;;;;;;3.31;53.88;101185.78;5070431;28;20195;-57
2022/03/14 04:30:39;;;;;;;26.53;14.93;;;;;;;3.23;54.69;101190.31;5070241;28;20197;-57
2022/03/14 04:33:08;;;;;;;25.00;15.80;;;;;;;3.30;54.94;101195.06;5068692;28;20197;-57
2022/03/14 04:35:36;;;;;;;25.00;16.50;;;;;;;3.30;54.68;101199.25;5070372;28;20310;-57
2022/03/14 04:38:06;;;;;;;27.10;16.33;;;;;;;3.25;55.40;101200.56;5070176;28;20192;-58
2022/03/14 04:40:33;;;;;;;24.80;16.53;;;;;;;3.21;55.41;101199.50;5070148;28;20617;-58
2022/03/14 04:43:04;;;;;;;25.47;16.30;;;;;;;3.28;55.52;101211.84;5073944;28;20191;-58
2022/03/14 04:45:32;;;;;;;29.02;17.40;;;;;;;3.28;55.67;101201.69;5073935;28;20571;-58
2022/03/14 04:47:59;;;;;;;25.53;16.53;;;;;;;3.39;55.20;101208.44;5074212;28;20193;-58
2022/03/14 04:50:26;;;;;;;24.43;16.27;;;;;;;3.31;55.42;101203.56;5073859;28;20223;-58
2022/03/14 04:52:53;;;;;;;25.97;15.90;;;;;;;3.26;55.60;101207.44;5074124;28;20275;-58
2022/03/14 04:55:22;;;;;;;25.77;17.03;;;;;;;3.25;55.43;101203.13;5073989;28;20219;-58
2022/03/14 04:57:49;;;;;;;22.67;15.70;;;;;;;3.27;54.90;101207.53;5073901;28;20286;-58
2022/03/14 05:00:17;;;;;;;25.57;16.40;;;;;;;3.25;55.38;101215.81;5072441;28;20713;-58
2022/03/14 05:02:44;;;;;;;20.10;14.87;;;;;;;3.20;55.35;101207.88;5074043;28;20230;-58
2022/03/14 05:05:12;;;;;;;23.03;15.00;;;;;;;3.14;55.62;101211.63;5073894;28;20569;-57
2022/03/14 05:07:39;;;;;;;24.00;15.87;;;;;;;3.21;55.45;101219.81;5073698;28;20199;-57
2022/03/14 05:10:06;;;;;;;21.07;15.10;;;;;;;3.27;55.59;101216.84;5073948;28;20206;-57
2022/03/14 05:12:35;;;;;;;26.03;15.53;;;;;;;3.29;55.80;101221.25;5073576;28;20209;-58
2022/03/14 05:15:02;;;;;;;23.07;15.83;;;;;;;3.30;55.34;101217.03;5073698;28;20206;-58
2022/03/14 05:17:30;;;;;;;24.80;16.23;;;;;;;3.34;55.18;101230.06;5073501;28;20374;-58
2022/03/14 05:19:57;;;;;;;27.97;16.07;;;;;;;3.41;55.25;101241.56;5073479;28;20192;-58
2022/03/14 05:22:24;;;;;;;25.03;15.57;;;;;;;3.43;54.91;101248.50;5073275;28;20227;-58
2022/03/14 05:24:51;;;;;;;22.90;15.67;;;;;;;3.48;55.07;101248.84;5073743;28;20274;-57
2022/03/14 05:27:18;;;;;;;26.40;16.77;;;;;;;3.50;54.56;101252.38;5073618;28;20196;-57
2022/03/14 05:29:47;;;;;;;26.47;15.43;;;;;;;3.49;54.76;101253.16;5072935;28;20198;-57
2022/03/14 05:32:13;;;;;;;22.37;15.77;;;;;;;3.53;54.94;101257.69;5073607;28;20202;-57
2022/03/14 05:34:40;;;;;;;29.50;16.70;;;;;;;3.49;55.19;101261.66;5073052;28;20272;-58
2022/03/14 05:37:08;;;;;;;23.10;16.23;;;;;;;3.56;54.77;101255.38;5059660;28;20770;-58
2022/03/14 05:39:35;;;;;;;24.67;15.60;;;;;;;3.54;54.46;101251.84;5067389;28;20216;-58
2022/03/14 05:42:03;;;;;;;28.43;16.17;;;;;;;3.54;55.33;101254.38;5067571;28;20193;-58
2022/03/14 05:44:30;;;;;;;24.07;16.50;;;;;;;3.61;54.47;101260.78;5064098;28;20204;-58
2022/03/14 05:46:58;;;;;;;24.17;16.73;;;;;;;3.76;54.75;101266.97;5068748;28;20555;-58
2022/03/14 05:49:25;;;;;;;20.63;15.40;;;;;;;3.86;53.64;101260.09;5077506;28;20991;-58
2022/03/14 05:51:52;;;;;;;22.97;14.77;;;;;;;3.93;53.10;101262.28;5073350;28;20214;-58
2022/03/14 05:54:19;;;;;;;22.17;17.60;;;;;;;4.07;52.86;101260.72;5072223;28;20444;-58
2022/03/14 05:56:46;;;;;;;20.07;14.50;;;;;;;4.22;51.92;101266.88;5072929;28;20221;-58
2022/03/14 05:59:13;;;;;;;23.57;14.87;;;;;;;4.29;51.13;101269.06;5072792;28;20228;-58
2022/03/14 06:01:40;;;;;;;18.83;14.63;;;;;;;4.37;50.76;101273.00;5072947;28;20196;-57
2022/03/14 06:04:09;;;;;;;17.77;13.07;;;;;;;4.40;50.48;101267.25;5072756;28;20197;-57
2022/03/14 06:06:37;;;;;;;17.73;13.47;;;;;;;4.40;49.63;101263.03;5072886;28;20194;-58
2022/03/14 06:09:04;;;;;;;21.67;13.80;;;;;;;4.44;49.95;101265.03;5072359;28;20286;-58
2022/03/14 06:11:31;;;;;;;20.77;13.17;;;;;;;4.48;49.90;101271.19;5071162;28;20188;-57
2022/03/14 06:13:58;;;;;;;19.03;14.30;;;;;;;4.57;49.06;101267.63;5070895;28;20193;-58
2022/03/14 06:16:25;;;;;;;17.77;13.73;;;;;;;4.68;49.20;101273.44;5070745;28;20311;-58
2022/03/14 06:18:52;;;;;;;20.45;16.25;;;;;;;4.64;48.43;101271.50;5073626;28;20495;-57
2022/03/14 06:21:20;;;;;;;21.50;14.43;;;;;;;4.70;49.62;101282.97;5075516;28;20194;-57
2022/03/14 06:23:47;;;;;;;22.93;14.40;;;;;;;4.55;49.94;101281.94;5080362;28;20205;-58
2022/03/14 06:26:15;;;;;;;17.87;14.10;;;;;;;4.37;50.14;101292.50;5082600;28;20191;-57
2022/03/14 06:28:42;;;;;;;22.95;17.17;;;;;;;4.31;50.46;101289.53;5080914;28;20497;-59
2022/03/14 06:31:11;;;;;;;21.87;13.80;;;;;;;4.44;50.47;101307.41;5076706;28;20192;-58
2022/03/14 06:33:38;;;;;;;20.47;14.53;;;;;;;4.44;50.67;101312.50;5077990;28;20199;-58
2022/03/14 06:36:05;;;;;;;22.70;14.30;;;;;;;4.41;51.01;101308.09;5078235;28;20202;-58
2022/03/14 06:38:35;;;;;;;19.47;13.63;;;;;;;4.48;51.12;101309.38;5078192;28;20193;-58
2022/03/14 06:41:02;;;;;;;18.80;13.57;;;;;;;4.52;51.12;101314.81;5051277;28;20211;-58
2022/03/14 06:43:29;;;;;;;27.00;14.10;;;;;;;4.61;50.61;101319.66;5051317;28;20192;-57
2022/03/14 06:45:57;;;;;;;23.70;14.47;;;;;;;4.73;50.64;101320.47;5051572;28;20192;-58
2022/03/14 06:48:24;;;;;;;23.03;14.67;;;;;;;4.89;50.46;101322.41;5051167;28;20196;-58
2022/03/14 06:50:51;;;;;;;28.20;15.67;;;;;;;5.00;50.23;101317.25;5051148;28;20200;-57
2022/03/14 06:53:18;;;;;;;23.90;16.55;;;;;;;5.03;49.07;101325.09;5050563;28;20905;-58
2022/03/14 06:55:47;;;;;;;21.77;15.40;;;;;;;5.13;48.94;101326.63;5050940;28;20270;-58
2022/03/14 06:58:14;;;;;;;20.73;14.23;;;;;;;5.23;48.28;101332.41;5050892;28;20284;-60
2022/03/14 07:00:42;;;;;;;26.87;14.53;;;;;;;5.38;47.93;101342.75;5051168;28;20199;-60
2022/03/14 07:03:09;;;;;;;16.87;11.70;;;;;;;5.53;46.88;101340.31;5050873;28;20200;-61
2022/03/14 07:05:36;;;;;;;12.43;9.90;;;;;;;5.63;44.19;101332.50;5050692;28;20196;-60
2022/03/14 07:08:03;;;;;;;19.00;10.70;;;;;;;5.71;44.04;101334.72;5051463;28;20189;-61
2022/03/14 07:10:30;;;;;;;18.57;11.60;;;;;;;5.76;45.05;101330.84;5078685;28;20280;-61
2022/03/14 07:12:59;;;;;;;15.57;11.17;;;;;;;5.84;44.70;101338.97;5072520;28;20214;-61
2022/03/14 07:15:26;;;;;;;11.87;10.07;;;;;;;5.89;44.17;101332.53;5070190;28;20206;-61
2022/03/14 07:17:54;;;;;;;13.57;10.87;;;;;;;5.77;44.02;101301.97;5070933;28;20664;-61
2022/03/14 07:20:23;;;;;;;18.23;11.60;;;;;;;5.82;44.61;101341.41;5076781;28;20187;-59
2022/03/14 07:22:55;;;;;;;18.38;12.68;;;;;;;5.92;44.47;101337.84;5070836;28;20440;-60
2022/03/14 07:25:24;;;;;;;15.70;12.00;;;;;;;5.92;44.00;101320.88;5070451;28;20382;-61
2022/03/14 07:27:53;;;;;;;13.50;10.70;;;;;;;6.23;44.46;101343.22;5070721;28;20193;-61
2022/03/14 07:30:22;;;;;;;13.30;10.10;;;;;;;6.26;42.88;101334.06;5075758;28;20196;-63
2022/03/14 07:32:48;;;;;;;17.88;13.70;;;;;;;6.19;42.36;101354.88;5079082;28;20440;-61
2022/03/14 07:35:16;;;;;;;13.60;9.70;;;;;;;6.14;40.97;101355.38;5081083;28;20178;-60
2022/03/14 07:37:44;;;;;;;13.77;10.03;;;;;;;6.02;41.18;101329.97;5075887;28;20547;-60
2022/03/14 07:40:13;;;;;;;12.87;9.80;;;;;;;6.17;41.89;101351.38;5071418;28;20205;-59
2022/03/14 07:42:41;;;;;;;12.93;9.87;;;;;;;6.27;42.30;101356.25;5050646;28;20285;-60
2022/03/14 07:45:10;;;;;;;14.63;11.67;;;;;;;6.30;41.01;101355.56;5053003;28;20206;-60
2022/03/14 07:47:39;;;;;;;11.90;9.47;;;;;;;5.92;41.19;101317.44;5079344;28;20253;-60
2022/03/14 07:50:08;;;;;;;13.23;9.87;;;;;;;6.20;41.20;101349.00;5080071;28;20228;-61
2022/03/14 07:52:36;;;;;;;16.50;12.57;;;;;;;6.24;40.69;101360.28;5079404;28;20189;-61
2022/03/14 07:55:03;;;;;;;18.47;11.47;;;;;;;6.32;42.08;101362.53;5079504;28;20181;-60
2022/03/14 07:57:31;;;;;;;16.60;13.60;;;;;;;6.43;41.27;101364.09;5077495;28;20586;-60
2022/03/14 07:59:59;;;;;;;16.67;13.00;;;;;;;6.49;41.16;101361.91;5071089;28;20651;-60
2022/03/14 08:02:26;;;;;;;16.53;11.40;;;;;;;6.48;41.93;101360.13;5069611;28;20996;-61
2022/03/14 08:04:54;;;;;;;13.53;11.10;;;;;;;6.48;41.54;101352.47;5075929;28;20191;-61
2022/03/14 08:07:21;;;;;;;16.73;11.20;;;;;;;6.49;41.88;101355.91;5070107;28;20202;-61
2022/03/14 08:09:49;;;;;;;18.00;12.33;;;;;;;6.50;41.52;101350.03;5069826;28;20205;-61
2022/03/14 08:12:16;;;;;;;18.13;13.10;;;;;;;6.66;41.40;101356.97;5069928;28;20252;-63
2022/03/14 08:14:43;;;;;;;16.40;11.63;;;;;;;6.77;40.72;101361.06;5069714;28;20289;-60
2022/03/14 08:17:10;;;;;;;18.97;12.10;;;;;;;6.83;41.29;101358.88;5068021;28;20216;-61
2022/03/14 08:19:37;;;;;;;14.87;11.80;;;;;;;6.84;41.40;101353.84;5068889;28;20228;-61
2022/03/14 08:22:06;;;;;;;26.13;12.67;;;;;;;6.97;40.31;101353.81;5068178;28;20664;-60
2022/03/14 08:24:33;;;;;;;15.47;12.83;;;;;;;6.98;40.34;101358.13;5068857;28;20203;-61
2022/03/14 08:27:01;;;;;;;20.33;13.40;;;;;;;7.00;40.43;101363.34;5068723;28;20188;-61
2022/03/14 08:29:28;;;;;;;17.33;13.33;;;;;;;6.95;41.21;101357.09;5068549;28;20222;-60
2022/03/14 08:31:55;;;;;;;17.63;13.67;;;;;;;7.08;40.43;101367.25;5069429;28;20263;-61
2022/03/14 08:34:22;;;;;;;22.70;13.20;;;;;;;7.07;40.46;101353.56;5069512;28;20193;-61
2022/03/14 08:36:49;;;;;;;22.07;13.30;;;;;;;6.98;40.68;101363.22;5069629;28;20784;-61
2022/03/14 08:39:17;;;;;;;19.03;13.97;;;;;;;7.02;40.38;101361.75;5069678;28;20187;-62
2022/03/14 08:41:44;;;;;;;18.97;14.13;;;;;;;7.03;40.94;101366.09;5069549;28;20294;-61
2022/03/14 08:44:12;;;;;;;16.80;13.00;;;;;;;7.14;40.02;101368.47;5069372;28;20215;-61
2022/03/14 08:46:39;;;;;;;17.33;13.60;;;;;;;7.19;39.79;101365.31;5069777;28;20214;-58
2022/03/14 08:49:06;;;;;;;16.87;13.83;;;;;;;7.17;40.55;101362.66;5069474;28;20193;-58
2022/03/14 08:51:33;;;;;;;21.83;15.30;;;;;;;7.32;40.85;101366.13;5069532;28;20279;-59
2022/03/14 08:54:00;;;;;;;19.73;14.10;;;;;;;7.44;39.49;101361.75;5069465;28;20194;-57
2022/03/14 08:56:28;;;;;;;19.37;13.97;;;;;;;7.41;39.42;101356.44;5069420;28;20598;-58
2022/03/14 08:58:55;;;;;;;18.97;12.83;;;;;;;7.38;38.24;101369.06;5069288;28;20222;-58
2022/03/14 09:01:22;;;;;;;20.10;12.53;;;;;;;7.46;38.37;101370.38;5069433;28;20611;-59
2022/03/14 09:03:49;;;;;;;17.93;13.33;;;;;;;7.40;38.16;101359.78;5069641;28;20199;-58
2022/03/14 09:06:17;;;;;;;14.97;11.83;;;;;;;7.47;37.41;101361.91;5069463;28;20573;-59
2022/03/14 09:08:44;;;;;;;18.47;12.17;;;;;;;7.55;36.97;101363.22;5069476;28;20198;-58
2022/03/14 09:11:10;;;;;;;15.53;11.73;;;;;;;7.56;37.09;101364.13;5069255;28;20201;-57
2022/03/14 09:13:39;;;;;;;16.63;12.60;;;;;;;7.69;37.60;101359.78;5068779;28;20446;-58
2022/03/14 09:16:08;;;;;;;17.77;12.40;;;;;;;7.78;37.02;101367.09;5069419;28;20255;-58
2022/03/14 09:18:36;;;;;;;16.17;11.73;;;;;;;7.89;36.51;101362.59;5069369;28;20233;-61
2022/03/14 09:21:03;;;;;;;16.17;10.97;;;;;;;7.98;35.97;101360.56;5069269;28;20199;-60
2022/03/14 09:23:30;;;;;;;16.83;11.40;;;;;;;8.12;35.35;101368.22;5069274;28;20225;-61
2022/03/14 09:25:57;;;;;;;16.90;12.20;;;;;;;8.07;35.08;101367.09;5069428;28;20196;-61
2022/03/14 09:28:25;;;;;;;13.33;9.60;;;;;;;8.15;34.57;101364.97;5071355;28;20650;-60
2022/03/14 09:30:55;;;;;;;13.30;10.63;;;;;;;8.20;34.63;101355.84;5073073;28;20663;-61
2022/03/14 09:33:22;;;;;;;11.80;8.80;;;;;;;8.24;33.62;101363.78;5072871;28;20198;-60
2022/03/14 09:35:50;;;;;;;14.60;11.53;;;;;;;8.23;34.52;101358.59;5072659;28;20205;-61
2022/03/14 09:38:18;;;;;;;15.90;10.63;;;;;;;8.13;34.16;101366.56;5072423;28;20217;-61
2022/03/14 09:40:46;;;;;;;16.63;11.90;;;;;;;8.32;34.20;101371.06;5072791;28;20644;-61
2022/03/14 09:43:16;;;;;;;14.90;10.00;;;;;;;8.34;33.91;101375.47;5073236;28;20200;-62
2022/03/14 09:45:47;;;;;;;20.57;12.03;;;;;;;8.49;33.88;101368.59;5072131;28;20203;-61
2022/03/14 09:48:16;;;;;;;17.47;11.07;;;;;;;8.34;33.12;101338.72;5072373;28;20201;-61
2022/03/14 09:50:45;;;;;;;15.20;11.30;;;;;;;8.47;33.92;101362.50;5072299;28;20195;-60
2022/03/14 09:53:14;;;;;;;16.47;11.47;;;;;;;8.62;33.87;101365.03;5072567;28;20300;-61
2022/03/14 09:55:46;;;;;;;15.57;10.37;;;;;;;8.51;33.33;101377.25;5072363;28;20217;-61
2022/03/14 09:58:15;;;;;;;9.43;7.97;;;;;;;8.18;31.56;101375.38;5063721;28;20585;-59
2022/03/14 10:00:43;;;;;;;8.37;7.37;;;;;;;8.33;32.44;101368.56;5072333;28;20286;-61
2022/03/14 10:03:10;;;;;;;13.63;8.50;;;;;;;8.60;31.61;101370.06;5069230;28;20190;-61
2022/03/14 10:05:39;;;;;;;10.67;8.63;;;;;;;8.76;31.69;101372.63;5082616;28;20988;-60
2022/03/14 10:08:06;;;;;;;15.47;10.93;;;;;;;8.88;32.23;101378.44;5078295;28;20186;-60
2022/03/14 10:10:37;;;;;;;18.10;12.53;;;;;;;8.74;33.02;101370.78;5073469;28;20616;-61
2022/03/14 10:13:05;;;;;;;14.90;11.23;;;;;;;8.82;32.97;101372.06;5070960;28;20570;-61
2022/03/14 10:15:34;;;;;;;14.83;9.93;;;;;;;8.92;32.61;101361.53;5071702;28;20286;-61
2022/03/14 10:18:02;;;;;;;12.77;10.13;;;;;;;9.05;32.27;101365.59;5071920;28;20276;-60
2022/03/14 10:20:29;;;;;;;15.40;9.90;;;;;;;8.54;32.36;101364.59;5072068;28;20597;-61
2022/03/14 10:23:00;;;;;;;13.23;9.90;;;;;;;8.80;32.59;101359.19;5071699;28;20196;-61
2022/03/14 10:25:27;;;;;;;13.37;9.80;;;;;;;8.58;32.77;101365.66;5079462;28;20285;-60
2022/03/14 10:27:56;;;;;;;12.57;9.47;;;;;;;8.50;32.70;101357.56;5078803;28;20191;-61
2022/03/14 10:30:26;;;;;;;15.73;10.03;;;;;;;8.30;32.53;101358.13;5080700;28;20197;-61
2022/03/14 10:33:01;;;;;;;12.07;8.47;;;;;;;8.35;32.60;101355.84;5073501;28;20217;-61
2022/03/14 10:35:35;;;;;;;10.93;9.53;;;;;;;8.63;32.20;101356.53;5071625;28;20255;-61
2022/03/14 10:38:05;;;;;;;12.53;9.10;;;;;;;8.65;32.29;101352.38;5073417;28;20233;-60
2022/03/14 10:40:34;;;;;;;16.30;9.77;;;;;;;8.96;32.56;101353.19;5079078;28;20724;-61
2022/03/14 10:43:01;;;;;;;10.53;8.23;;;;;;;8.79;31.37;101341.16;5081370;28;20558;-60
2022/03/14 10:45:31;;;;;;;12.57;9.27;;;;;;;8.87;31.59;101345.88;5080210;28;20206;-60
2022/03/14 10:48:01;;;;;;;11.33;9.27;;;;;;;9.05;31.68;101345.09;5082065;28;20233;-60
2022/03/14 10:50:31;;;;;;;11.30;8.93;;;;;;;9.03;31.59;101341.56;5081978;28;20195;-61
2022/03/14 10:53:06;;;;;;;12.60;10.37;;;;;;;9.05;31.29;101339.97;5080816;28;20183;-60
2022/03/14 10:55:42;;;;;;;11.77;8.60;;;;;;;9.09;30.81;101334.22;5077050;28;20193;-61
2022/03/14 10:58:11;;;;;;;12.75;9.93;;;;;;;9.26;31.13;101323.09;5078993;28;21068;-60
2022/03/14 11:00:52;;;;;;;10.93;8.87;;;;;;;9.47;30.63;101329.31;5077720;28;20542;-61
2022/03/14 11:03:23;;;;;;;9.90;8.67;;;;;;;9.25;31.18;101314.56;5078176;28;20202;-61
2022/03/14 11:05:50;;;;;;;11.93;9.67;;;;;;;9.60;31.00;101316.28;5076844;28;20233;-60
2022/03/14 11:08:36;;;;;;;11.10;8.97;;;;;;;9.65;30.50;101302.00;5070963;28;20203;-60
2022/03/14 11:11:06;;;;;;;14.67;9.93;;;;;;;9.80;30.24;101307.00;5074936;28;20201;-61
2022/03/14 11:13:37;;;;;;;13.70;8.63;;;;;;;9.80;30.24;101309.56;5072987;28;20196;-64
2022/03/14 11:16:05;;;;;;;17.27;10.87;;;;;;;9.60;30.82;101312.84;5072528;28;20680;-61
2022/03/14 11:18:35;;;;;;;10.00;8.87;;;;;;;9.77;31.39;101310.31;5070783;28;20304;-61
2022/03/14 11:21:04;;;;;;;13.00;9.77;;;;;;;9.88;31.11;101310.81;5070391;28;20253;-61
2022/03/14 11:23:32;;;;;;;14.93;11.27;;;;;;;9.95;30.66;101315.41;5070883;28;20267;-60